Stations météo

Publicité
St-Raphael, France (7680): Température de l'air & dewpoint: 12.02.2020 07:00:00 - 18.02.2020 07:00:00 (CET)St-Raphael, France (7680): Vitesse du vent & gusts: 12.02.2020 07:00:00 - 18.02.2020 07:00:00 (CET)St-Raphael, France (7680): Direction du vent: 12.02.2020 07:00:00 - 18.02.2020 07:00:00 (CET)St-Raphael, France (7680): Quantités de précipitations: 12.02.2020 07:00:00 - 18.02.2020 07:00:00 (CET)
Date & Time tt [°C] td [°C] ff [km/h] ff [knt] fx [km/h] fx [knt] dd rr [mm]
18.02.2020 07:00:00 10,8 2,4 22 12 42 23 WNW -
18.02.2020 06:00:00 10,6 2,7 22 12 54 29 WNW 0,0
18.02.2020 05:00:00 11,3 2,6 28 15 59 32 W 0,0
18.02.2020 04:00:00 11,5 2,8 35 19 59 32 W 0,0
18.02.2020 03:00:00 12,0 3,0 24 13 50 27 W 0,0
18.02.2020 02:00:00 12,7 5,6 28 15 52 28 W 0,0
18.02.2020 01:00:00 13,5 7,7 22 12 48 26 W -
18.02.2020 00:00:00 13,9 9,5 15 8 46 25 W 0,0
17.02.2020 23:00:00 14,0 10,0 21 11 42 23 WSW 0,0
17.02.2020 22:00:00 13,7 10,3 21 11 42 23 WSW 0,0
17.02.2020 21:00:00 13,6 10,2 18 10 34 18 W 0,0
17.02.2020 20:00:00 11,1 9,7 2 1 9 5 WSW 0,0
17.02.2020 19:00:00 12,4 10,5 4 2 16 9 S -
17.02.2020 18:00:00 13,3 11,2 8 4 16 9 SW 0,0
17.02.2020 17:00:00 13,6 11,6 8 4 16 9 SW 0,0
17.02.2020 16:00:00 13,5 11,2 11 6 24 13 SW 0,0
17.02.2020 15:00:00 14,2 10,6 11 6 21 11 SW 0,0
17.02.2020 14:00:00 14,2 10,2 13 7 22 12 SW 0,0
17.02.2020 13:00:00 14,3 10,7 8 4 13 7 W -
17.02.2020 12:00:00 14,1 11,1 4 2 8 4 WSW 0,0
17.02.2020 11:00:00 13,0 10,9 4 2 8 4 WNW 0,0
17.02.2020 10:00:00 11,5 10,2 4 2 8 4 WNW 0,0
17.02.2020 09:00:00 10,7 9,9 4 2 8 4 NW 0,0
17.02.2020 08:00:00 9,7 9,2 2 1 9 5 WNW 0,0
17.02.2020 07:00:00 9,4 8,8 4 2 9 5 NW -
17.02.2020 06:00:00 9,4 8,8 4 2 8 4 NW 0,0
17.02.2020 05:00:00 9,4 8,5 4 2 5 3 NNW 0,2
17.02.2020 04:00:00 8,9 7,8 4 2 8 4 N 0,0
17.02.2020 03:00:00 8,5 7,6 4 2 8 4 WNW 0,0
17.02.2020 02:00:00 8,7 7,8 4 2 11 6 NW 0,0
17.02.2020 01:00:00 8,3 7,4 4 2 9 5 NW -
17.02.2020 00:00:00 7,4 6,8 4 2 13 7 WNW 0,0
16.02.2020 23:00:00 7,4 7,0 4 2 15 8 NW 0,0
16.02.2020 22:00:00 7,6 6,4 4 2 8 4 NW 0,0
16.02.2020 21:00:00 8,9 8,1 4 2 8 4 NNW 0,0
16.02.2020 20:00:00 8,7 6,8 2 1 4 2 NW 0,0
16.02.2020 19:00:00 10,9 8,5 4 2 8 4 WNW -
16.02.2020 18:00:00 12,8 10,2 4 2 9 5 ESE 0,0
16.02.2020 17:00:00 12,6 8,7 4 2 8 4 E 0,0
16.02.2020 16:00:00 12,5 8,0 5 3 11 6 SSE 0,0
16.02.2020 15:00:00 13,6 8,4 4 2 9 5 SSE 0,0
16.02.2020 14:00:00 12,5 8,0 4 2 9 5 NW 0,0
16.02.2020 13:00:00 11,8 7,7 5 3 15 8 SW -
16.02.2020 12:00:00 10,6 7,1 4 2 13 7 NW 0,0
16.02.2020 11:00:00 9,6 6,9 5 3 16 9 NNW 0,0
16.02.2020 10:00:00 8,2 6,0 8 4 16 9 NNW 0,0
16.02.2020 09:00:00 7,0 5,3 8 4 15 8 NW 0,0
16.02.2020 08:00:00 6,5 4,8 8 4 22 12 NNW 0,0
16.02.2020 07:00:00 5,6 4,4 8 4 13 7 NW -
16.02.2020 06:00:00 4,6 3,9 5 3 18 10 NW 0,0
16.02.2020 05:00:00 5,3 4,7 8 4 16 9 NW 0,0
16.02.2020 04:00:00 6,5 5,8 4 2 13 7 N 0,0
16.02.2020 03:00:00 6,9 6,2 9 5 15 8 NW 0,0
16.02.2020 02:00:00 6,8 6,4 8 4 13 7 NW 0,0
16.02.2020 01:00:00 6,6 5,9 8 4 13 7 W -
16.02.2020 00:00:00 7,6 6,8 4 2 8 4 NNW 0,0
15.02.2020 23:00:00 7,6 6,5 8 4 9 5 WNW 0,0
15.02.2020 22:00:00 7,8 6,4 4 2 11 6 WNW 0,0
15.02.2020 21:00:00 8,9 7,5 5 3 9 5 NW 0,0
15.02.2020 20:00:00 8,7 7,9 4 2 9 5 N 0,0
15.02.2020 19:00:00 9,9 7,1 0 0 5 3 N -
15.02.2020 18:00:00 12,4 8,9 4 2 15 8 SSE 0,0
15.02.2020 17:00:00 13,7 9,5 8 4 16 9 SSE 0,0
15.02.2020 16:00:00 15,0 9,8 8 4 18 10 SE 0,0
15.02.2020 15:00:00 15,3 9,9 9 5 21 11 SE 0,0
15.02.2020 14:00:00 15,3 9,6 8 4 15 8 ESE 0,0
15.02.2020 13:00:00 15,6 9,5 8 4 18 10 SE -
15.02.2020 12:00:00 15,3 9,4 11 6 21 11 ESE 0,0
15.02.2020 11:00:00 15,2 9,5 8 4 16 9 ESE 0,0
15.02.2020 10:00:00 9,5 6,0 5 3 9 5 WNW 0,0
15.02.2020 09:00:00 5,1 2,9 8 4 13 7 WNW 0,0
15.02.2020 08:00:00 2,9 1,6 8 4 13 7 NW 0,0
15.02.2020 07:00:00 2,4 0,9 5 3 11 6 WNW -
15.02.2020 06:00:00 3,0 1,4 5 3 11 6 WNW 0,0
15.02.2020 05:00:00 3,1 1,6 5 3 13 7 WNW 0,0
15.02.2020 04:00:00 3,8 2,2 8 4 15 8 WNW 0,0
15.02.2020 03:00:00 4,0 2,2 5 3 18 10 NW 0,0
15.02.2020 02:00:00 4,2 2,7 8 4 16 9 WNW 0,0
15.02.2020 01:00:00 4,9 3,6 5 3 9 5 NW -
15.02.2020 00:00:00 5,5 4,3 4 2 13 7 NW 0,0
14.02.2020 23:00:00 6,3 4,3 4 2 11 6 WNW 0,0
14.02.2020 22:00:00 7,1 5,4 5 3 11 6 NNW 0,0
14.02.2020 21:00:00 9,1 7,0 4 2 9 5 NW 0,0
14.02.2020 20:00:00 10,2 8,3 2 1 9 5 N 0,0
14.02.2020 19:00:00 12,5 8,4 5 3 16 9 SE -
14.02.2020 18:00:00 14,2 9,2 5 3 18 10 SE 0,0
14.02.2020 17:00:00 15,7 8,7 8 4 22 12 ESE 0,0
14.02.2020 16:00:00 17,8 8,6 8 4 18 10 SE 0,0
14.02.2020 15:00:00 17,7 8,3 9 5 18 10 SE 0,0
14.02.2020 14:00:00 18,0 7,7 8 4 29 16 SE 0,0
14.02.2020 13:00:00 18,7 6,2 9 5 31 17 SE -
14.02.2020 12:00:00 17,8 2,1 18 10 39 21 W 0,0
14.02.2020 11:00:00 15,9 2,3 22 12 52 28 W 0,0
14.02.2020 10:00:00 13,4 2,0 26 14 54 29 W 0,0
14.02.2020 09:00:00 12,0 1,6 31 17 59 32 W 0,0
14.02.2020 08:00:00 11,1 1,6 34 18 74 40 WNW 0,0
14.02.2020 07:00:00 11,4 1,6 35 19 70 38 W -
14.02.2020 06:00:00 11,5 2,0 31 17 67 36 W 0,0
14.02.2020 05:00:00 11,6 2,3 26 14 52 28 W 0,0
14.02.2020 04:00:00 12,1 3,3 29 16 70 38 W 0,0
14.02.2020 03:00:00 12,1 4,8 29 16 54 29 W 0,0
14.02.2020 02:00:00 12,2 6,7 29 16 52 28 W 0,0
14.02.2020 01:00:00 12,7 7,8 31 17 55 30 W -
14.02.2020 00:00:00 13,0 8,3 35 19 59 32 W 0,0
13.02.2020 23:00:00 12,9 8,4 18 10 34 18 W 0,0
13.02.2020 22:00:00 13,1 9,3 11 6 29 16 W 0,0
13.02.2020 21:00:00 11,9 9,1 4 2 16 9 W 0,0
13.02.2020 20:00:00 12,7 9,0 11 6 26 14 WSW 0,0
13.02.2020 19:00:00 13,5 9,0 11 6 24 13 W -
13.02.2020 18:00:00 13,6 9,8 11 6 24 13 SSW 0,0
13.02.2020 17:00:00 14,6 9,4 15 8 28 15 SW 0,0
13.02.2020 16:00:00 15,2 8,7 16 9 35 19 SW 0,0
13.02.2020 15:00:00 16,0 8,5 18 10 29 16 SW 0,0
13.02.2020 14:00:00 15,8 7,0 18 10 34 18 WSW 0,0
13.02.2020 13:00:00 16,0 6,4 5 3 28 15 S -
13.02.2020 12:00:00 13,9 2,5 16 9 29 16 W 0,0
13.02.2020 11:00:00 11,8 -2,1 8 4 16 9 NW 0,0
13.02.2020 10:00:00 9,0 -2,9 9 5 22 12 NW 0,0
13.02.2020 09:00:00 6,0 -3,7 8 4 22 12 NNW 0,0
13.02.2020 08:00:00 4,1 -4,9 8 4 21 11 N 0,0
13.02.2020 07:00:00 3,7 -4,8 8 4 24 13 N -
13.02.2020 06:00:00 4,9 -4,9 11 6 29 16 NNW 0,0
13.02.2020 05:00:00 5,2 -4,9 15 8 26 14 N 0,0
13.02.2020 04:00:00 5,4 -4,5 9 5 22 12 NNW 0,0
13.02.2020 03:00:00 5,1 -4,0 9 5 31 17 N 0,0
13.02.2020 02:00:00 6,5 -4,3 11 6 24 13 N 0,0
13.02.2020 01:00:00 7,7 -3,8 9 5 24 13 NW -
13.02.2020 00:00:00 8,2 -3,7 9 5 34 18 NNW 0,0
12.02.2020 23:00:00 9,7 -4,0 16 9 29 16 WNW 0,0
12.02.2020 22:00:00 9,8 -2,8 13 7 28 15 NW 0,0
12.02.2020 21:00:00 10,5 -2,2 11 6 34 18 NW 0,0
12.02.2020 20:00:00 11,5 -1,7 18 10 48 26 WNW 0,0
12.02.2020 19:00:00 12,3 -2,0 18 10 44 24 W -
12.02.2020 18:00:00 14,0 -2,9 24 13 42 23 W 0,0
12.02.2020 17:00:00 15,5 -3,0 22 12 48 26 W 0,0
12.02.2020 16:00:00 16,9 -5,6 28 15 59 32 W 0,0
12.02.2020 15:00:00 17,1 -6,7 29 16 55 30 W 0,0
12.02.2020 14:00:00 18,0 -7,5 28 15 52 28 W 0,0
12.02.2020 13:00:00 17,6 -6,3 28 15 48 26 W -
12.02.2020 12:00:00 16,0 -4,0 18 10 46 25 W 0,0
12.02.2020 11:00:00 13,7 -3,6 26 14 55 30 W 0,0
12.02.2020 10:00:00 12,1 -4,1 28 15 44 24 W 0,0
12.02.2020 09:00:00 10,5 -4,3 22 12 39 21 W 0,0
12.02.2020 08:00:00 9,0 -4,9 15 8 28 15 W 0,0
12.02.2020 07:00:00 9,5 -4,5 9 5 29 16 W -

tt = Température de l'air
td = dewpoint
ff = Vitesse du vent
fx = gusts
dd = Direction du vent
rr = Quantités de précipitations

stations d'obs. à proximité